Time;durP1;ratioP1;P1;durP2;ratioP2;P2;SDS_P1;SDS_P2;PMS_P1;PMS_P2;Temp;Humidity;BMP_temperature;BMP_pressure;BME280_temperature;BME280_humidity;BME280_pressure;Samples;Min_cycle;Max_cycle;Signal;HPM_P1;HPM_P2
2023/04/15 00:00:16;;;;;;;3.10;2.20;;;8.80;99.90;;;;;;4999993;28;20617;-79
2023/04/15 00:02:43;;;;;;;2.67;2.17;;;8.70;99.90;;;;;;4999352;28;20341;-79
2023/04/15 00:05:08;;;;;;;3.80;2.47;;;8.60;99.90;;;;;;4994363;28;20182;-79
2023/04/15 00:07:34;;;;;;;2.80;2.13;;;8.60;99.90;;;;;;4998936;28;20241;-79
2023/04/15 00:10:01;;;;;;;2.20;1.83;;;8.60;99.90;;;;;;5016596;28;20186;-77
2023/04/15 00:12:27;;;;;;;3.20;1.90;;;8.60;99.90;;;;;;4997730;28;20292;-78
2023/04/15 00:14:53;;;;;;;3.27;2.00;;;8.50;99.90;;;;;;4998853;28;20262;-79
2023/04/15 00:17:19;;;;;;;3.60;1.93;;;8.50;99.90;;;;;;4996735;28;20183;-79
2023/04/15 00:19:44;;;;;;;3.10;1.80;;;8.40;99.90;;;;;;5005410;28;20262;-77
2023/04/15 00:22:13;;;;;;;3.03;1.80;;;8.40;99.90;;;;;;4995282;28;20297;-77
2023/04/15 00:24:41;;;;;;;4.93;2.33;;;8.40;99.90;;;;;;4999837;28;20175;-76
2023/04/15 00:27:10;;;;;;;4.50;2.00;;;8.40;99.90;;;;;;4999934;28;20250;-76
2023/04/15 00:29:36;;;;;;;2.93;2.20;;;8.40;99.90;;;;;;5015814;28;20203;-74
2023/04/15 00:32:01;;;;;;;4.00;1.80;;;8.40;99.90;;;;;;4999476;28;20189;-76
2023/04/15 00:34:27;;;;;;;3.37;1.80;;;8.30;99.90;;;;;;4999394;28;20182;-77
2023/04/15 00:36:53;;;;;;;2.70;2.00;;;8.40;99.90;;;;;;4999131;28;20182;-79
2023/04/15 00:39:19;;;;;;;3.30;1.83;;;8.40;99.90;;;;;;4999633;28;20209;-78
2023/04/15 00:41:45;;;;;;;3.10;2.00;;;8.30;99.90;;;;;;5015506;28;20206;-79
2023/04/15 00:44:11;;;;;;;2.40;1.60;;;8.40;99.90;;;;;;4999380;28;20182;-78
2023/04/15 00:46:40;;;;;;;3.70;1.87;;;8.30;99.90;;;;;;5016027;28;20178;-79
2023/04/15 00:49:08;;;;;;;2.43;1.80;;;8.30;99.90;;;;;;4998808;28;20203;-79
2023/04/15 00:51:35;;;;;;;4.10;1.77;;;8.30;99.90;;;;;;4999272;28;20277;-80
2023/04/15 00:54:03;;;;;;;2.87;1.90;;;8.30;99.90;;;;;;5019977;28;20466;-78
2023/04/15 00:56:29;;;;;;;2.60;1.73;;;8.30;99.90;;;;;;4999456;28;20248;-79
2023/04/15 00:58:57;;;;;;;3.07;2.07;;;8.30;99.90;;;;;;5015648;28;20175;-79
2023/04/15 01:01:24;;;;;;;4.27;1.80;;;8.20;99.90;;;;;;4999478;28;20198;-79
2023/04/15 01:03:54;;;;;;;3.43;1.80;;;8.30;99.90;;;;;;5016313;28;20194;-70
2023/04/15 01:06:22;;;;;;;3.30;1.60;;;8.20;99.90;;;;;;4995997;28;20187;-68
2023/04/15 01:08:48;;;;;;;2.40;1.50;;;8.20;99.90;;;;;;5006796;28;20179;-68
2023/04/15 01:11:14;;;;;;;3.03;1.73;;;8.20;99.90;;;;;;4999419;28;20185;-68
2023/04/15 01:13:40;;;;;;;3.80;1.90;;;8.20;99.90;;;;;;5000706;28;20185;-68
2023/04/15 01:16:07;;;;;;;2.73;1.83;;;8.30;99.90;;;;;;4998983;28;20175;-68
2023/04/15 01:18:34;;;;;;;2.90;1.80;;;8.20;99.90;;;;;;5015122;28;20194;-68
2023/04/15 01:21:01;;;;;;;2.50;1.60;;;8.10;99.90;;;;;;4998682;28;20213;-68
2023/04/15 01:23:29;;;;;;;2.73;1.67;;;8.20;99.90;;;;;;4998052;28;20191;-68
2023/04/15 01:25:55;;;;;;;3.37;1.80;;;8.10;99.90;;;;;;4997467;28;20158;-67
2023/04/15 01:28:21;;;;;;;2.97;1.90;;;8.10;99.90;;;;;;4999943;28;20175;-68
2023/04/15 01:30:49;;;;;;;4.33;1.60;;;8.00;99.90;;;;;;4995298;28;20198;-69
2023/04/15 01:33:14;;;;;;;4.03;1.50;;;8.10;99.90;;;;;;4998678;28;20257;-68
2023/04/15 01:35:43;;;;;;;2.17;1.50;;;8.00;99.90;;;;;;4996301;28;20199;-70
2023/04/15 01:38:10;;;;;;;2.47;1.60;;;7.90;99.90;;;;;;5009274;28;20186;-67
2023/04/15 01:40:36;;;;;;;4.60;1.30;;;7.90;99.90;;;;;;4998209;28;20178;-68
2023/04/15 01:43:02;;;;;;;2.57;1.50;;;7.80;99.90;;;;;;5004544;28;20175;-68
2023/04/15 01:45:30;;;;;;;1.90;1.70;;;7.80;99.90;;;;;;5002216;28;20202;-68
2023/04/15 01:47:56;;;;;;;3.37;1.93;;;7.70;99.90;;;;;;4997432;28;20193;-68
2023/04/15 01:50:26;;;;;;;3.07;1.70;;;7.70;99.90;;;;;;4999499;28;20167;-67
2023/04/15 01:52:51;;;;;;;2.43;1.60;;;7.70;99.90;;;;;;5015356;28;20205;-68
2023/04/15 01:55:19;;;;;;;2.20;1.63;;;7.60;99.90;;;;;;5014550;28;20178;-68
2023/04/15 01:57:47;;;;;;;2.37;1.70;;;7.60;99.90;;;;;;4998218;28;20178;-68
2023/04/15 02:00:16;;;;;;;2.17;1.50;;;7.60;99.90;;;;;;4998024;28;20183;-68
2023/04/15 02:02:42;;;;;;;4.57;1.70;;;7.50;99.90;;;;;;5001558;28;20229;-68
2023/04/15 02:05:10;;;;;;;2.07;1.50;;;7.40;99.90;;;;;;4997279;28;20206;-68
2023/04/15 02:07:38;;;;;;;2.00;1.47;;;7.40;99.90;;;;;;4998040;28;20174;-68
2023/04/15 02:10:04;;;;;;;3.83;1.70;;;7.40;99.90;;;;;;5006015;28;20179;-69
2023/04/15 02:12:32;;;;;;;3.30;1.63;;;7.30;99.90;;;;;;4997462;28;20297;-68
2023/04/15 02:15:00;;;;;;;2.67;1.60;;;7.30;99.90;;;;;;4998704;28;20179;-69
2023/04/15 02:17:28;;;;;;;2.43;1.50;;;7.30;99.90;;;;;;4997872;28;20192;-68
2023/04/15 02:19:55;;;;;;;5.33;1.70;;;7.30;99.90;;;;;;4998143;28;20202;-69
2023/04/15 02:22:21;;;;;;;3.07;1.53;;;7.30;99.90;;;;;;5000833;28;20201;-68
2023/04/15 02:24:47;;;;;;;1.90;1.60;;;7.30;99.90;;;;;;5002237;28;20305;-69
2023/04/15 02:27:18;;;;;;;2.90;1.33;;;7.20;99.90;;;;;;5013098;28;20229;-68
2023/04/15 02:29:45;;;;;;;2.80;1.90;;;7.30;99.90;;;;;;5015693;28;20183;-70
2023/04/15 02:32:13;;;;;;;1.87;1.27;;;7.20;99.90;;;;;;5021217;28;20174;-68
2023/04/15 02:34:42;;;;;;;2.50;1.60;;;7.20;99.90;;;;;;5001062;28;20202;-69
2023/04/15 02:37:13;;;;;;;3.63;1.50;;;7.20;99.90;;;;;;5018055;28;20197;-68
2023/04/15 02:39:39;;;;;;;2.90;1.60;;;7.20;99.90;;;;;;5001959;28;20222;-66
2023/04/15 02:42:07;;;;;;;1.80;1.30;;;7.20;99.90;;;;;;5001518;28;20206;-69
2023/04/15 02:44:35;;;;;;;2.27;1.40;;;7.20;99.90;;;;;;5009138;28;20175;-63
2023/04/15 02:47:00;;;;;;;2.40;1.50;;;7.10;99.90;;;;;;5001513;28;20167;-70
2023/04/15 02:49:28;;;;;;;2.87;1.47;;;7.10;99.90;;;;;;5008944;28;20444;-68
2023/04/15 02:51:54;;;;;;;3.33;1.70;;;7.10;99.90;;;;;;5002096;28;20285;-69
2023/04/15 02:54:27;;;;;;;2.10;1.50;;;7.10;99.90;;;;;;4998457;28;20195;-68
2023/04/15 02:56:55;;;;;;;3.43;1.63;;;7.10;99.90;;;;;;5014334;28;20276;-63
2023/04/15 02:59:21;;;;;;;2.47;1.70;;;7.00;99.90;;;;;;5020754;28;20265;-67
2023/04/15 03:01:51;;;;;;;3.23;1.53;;;7.00;99.90;;;;;;5011002;28;20289;-68
2023/04/15 03:04:17;;;;;;;2.13;1.40;;;7.00;99.90;;;;;;5001011;28;20194;-68
2023/04/15 03:06:47;;;;;;;2.30;1.27;;;6.90;99.90;;;;;;5013582;28;20249;-68
2023/04/15 03:09:13;;;;;;;2.23;1.40;;;6.90;99.90;;;;;;5018561;28;20174;-70
2023/04/15 03:11:40;;;;;;;2.23;1.50;;;6.90;99.90;;;;;;4994366;28;20213;-68
2023/04/15 03:14:08;;;;;;;1.93;1.30;;;6.90;99.90;;;;;;4997561;28;20274;-68
2023/04/15 03:16:36;;;;;;;1.93;1.30;;;6.80;99.90;;;;;;5002762;28;20177;-68
2023/04/15 03:19:02;;;;;;;2.77;1.50;;;6.80;99.90;;;;;;5001284;28;20361;-64
2023/04/15 03:21:27;;;;;;;2.33;1.60;;;6.80;99.90;;;;;;5014638;28;20262;-68
2023/04/15 03:23:56;;;;;;;2.60;1.53;;;6.70;99.90;;;;;;5000378;28;20181;-68
2023/04/15 03:26:29;;;;;;;2.43;1.43;;;6.80;99.90;;;;;;5000618;28;20171;-68
2023/04/15 03:29:00;;;;;;;2.80;1.50;;;6.70;99.90;;;;;;5000658;28;20191;-68
2023/04/15 03:31:30;;;;;;;3.53;1.47;;;6.70;99.90;;;;;;5016228;28;20292;-68
2023/04/15 03:33:58;;;;;;;2.13;1.40;;;6.60;99.90;;;;;;5000725;28;20187;-69
2023/04/15 03:36:30;;;;;;;2.03;1.43;;;6.60;99.90;;;;;;5000972;28;20174;-68
2023/04/15 03:38:56;;;;;;;2.37;1.50;;;6.60;99.90;;;;;;5001071;28;20202;-68
2023/04/15 03:41:22;;;;;;;1.93;1.20;;;6.50;99.90;;;;;;5001106;28;20273;-68
2023/04/15 03:43:53;;;;;;;2.63;1.30;;;6.50;99.90;;;;;;5000604;28;20182;-68
2023/04/15 03:46:23;;;;;;;3.13;1.67;;;6.60;99.90;;;;;;5000166;28;20205;-68
2023/04/15 03:48:53;;;;;;;1.37;1.20;;;6.50;99.90;;;;;;5000963;28;20179;-68
2023/04/15 03:51:21;;;;;;;2.37;1.43;;;6.50;99.90;;;;;;5001106;28;20197;-68
2023/04/15 03:53:50;;;;;;;2.37;1.40;;;6.50;99.90;;;;;;5000355;28;20477;-68
2023/04/15 03:56:18;;;;;;;3.47;1.50;;;6.50;99.90;;;;;;5000820;28;20175;-66
2023/04/15 03:58:45;;;;;;;2.63;1.60;;;6.50;99.90;;;;;;5000074;28;20191;-68
2023/04/15 04:01:13;;;;;;;2.13;1.50;;;6.50;99.90;;;;;;5000374;28;20297;-68
2023/04/15 04:03:41;;;;;;;4.93;1.40;;;6.50;99.90;;;;;;4999892;28;20221;-66
2023/04/15 04:06:07;;;;;;;1.90;1.50;;;6.50;99.90;;;;;;5016206;28;20409;-68
2023/04/15 04:08:33;;;;;;;2.10;1.60;;;6.50;99.90;;;;;;5000069;28;20214;-68
2023/04/15 04:10:59;;;;;;;4.17;1.60;;;6.50;99.90;;;;;;5000316;28;20179;-67
2023/04/15 04:13:24;;;;;;;1.83;1.20;;;6.50;99.90;;;;;;5000116;28;20191;-68
2023/04/15 04:15:50;;;;;;;2.60;1.57;;;6.50;99.90;;;;;;5000670;28;20178;-68
2023/04/15 04:18:16;;;;;;;1.97;1.40;;;6.60;99.90;;;;;;4999233;28;20256;-68
2023/04/15 04:20:41;;;;;;;2.87;1.53;;;6.60;99.90;;;;;;5016111;28;20195;-68
2023/04/15 04:23:07;;;;;;;3.00;1.33;;;6.60;99.90;;;;;;5000526;28;20182;-67
2023/04/15 04:25:35;;;;;;;3.87;1.60;;;6.60;99.90;;;;;;4994326;28;20253;-68
2023/04/15 04:28:05;;;;;;;3.07;1.37;;;6.60;99.90;;;;;;4995742;28;20185;-68
2023/04/15 04:30:31;;;;;;;2.87;1.70;;;6.60;99.90;;;;;;5015790;28;20179;-68
2023/04/15 04:32:57;;;;;;;2.50;1.50;;;6.60;99.90;;;;;;5014378;28;20218;-67
2023/04/15 04:35:27;;;;;;;2.07;1.50;;;6.60;99.90;;;;;;5011808;28;20175;-67
2023/04/15 04:37:53;;;;;;;3.10;1.50;;;6.50;99.90;;;;;;4997718;28;20178;-68
2023/04/15 04:40:23;;;;;;;3.10;1.60;;;6.50;99.90;;;;;;5015372;28;20208;-65
2023/04/15 04:42:48;;;;;;;1.83;1.33;;;6.50;99.90;;;;;;4998562;28;20201;-67
2023/04/15 04:45:14;;;;;;;2.83;1.40;;;6.50;99.90;;;;;;4997253;28;20180;-68
2023/04/15 04:47:40;;;;;;;2.07;1.50;;;6.40;99.90;;;;;;4998694;28;20205;-68
2023/04/15 04:50:06;;;;;;;2.57;1.60;;;6.40;99.90;;;;;;5012410;28;20289;-64
2023/04/15 04:52:34;;;;;;;1.77;1.37;;;6.40;99.90;;;;;;5014528;28;20182;-68
2023/04/15 04:55:00;;;;;;;2.40;1.60;;;6.30;99.90;;;;;;4998594;28;20238;-68
2023/04/15 04:57:25;;;;;;;2.50;1.53;;;6.30;99.90;;;;;;4998499;28;20225;-68
2023/04/15 04:59:53;;;;;;;2.83;1.80;;;6.30;99.90;;;;;;5009458;28;20190;-68
2023/04/15 05:02:21;;;;;;;3.53;1.80;;;6.30;99.90;;;;;;4998370;28;20198;-68
2023/04/15 05:04:47;;;;;;;2.87;1.60;;;6.30;99.90;;;;;;5001266;28;20166;-66
2023/04/15 05:07:15;;;;;;;3.50;1.80;;;6.30;99.90;;;;;;4997464;28;20419;-67
2023/04/15 05:09:46;;;;;;;3.57;1.70;;;6.20;99.90;;;;;;5014713;28;20269;-68
2023/04/15 05:12:13;;;;;;;2.53;1.70;;;6.20;99.90;;;;;;4998702;28;20170;-68
2023/04/15 05:14:40;;;;;;;3.03;1.73;;;6.20;99.90;;;;;;4998335;28;20280;-68
2023/04/15 05:17:10;;;;;;;2.60;1.87;;;6.10;99.90;;;;;;4998441;28;20202;-67
2023/04/15 05:19:38;;;;;;;2.30;1.33;;;6.10;99.90;;;;;;4998108;28;20209;-65
2023/04/15 05:22:06;;;;;;;3.53;1.80;;;6.10;99.90;;;;;;4997169;28;20210;-66
2023/04/15 05:24:34;;;;;;;2.57;2.00;;;6.10;99.90;;;;;;4992869;28;20178;-65
2023/04/15 05:27:02;;;;;;;2.53;1.67;;;6.10;99.90;;;;;;4991957;28;20175;-68
2023/04/15 05:29:30;;;;;;;6.70;2.10;;;6.10;99.90;;;;;;4998141;28;20178;-68
2023/04/15 05:31:56;;;;;;;3.17;1.90;;;6.10;99.90;;;;;;4994695;28;20179;-66
2023/04/15 05:34:21;;;;;;;2.07;1.60;;;6.10;99.90;;;;;;5012956;28;20189;-64
2023/04/15 05:36:47;;;;;;;2.33;1.60;;;6.10;99.90;;;;;;4998247;28;20170;-67
2023/04/15 05:39:13;;;;;;;2.87;1.63;;;6.10;99.90;;;;;;4997814;28;20175;-68
2023/04/15 05:41:40;;;;;;;2.07;1.50;;;6.20;99.90;;;;;;4998217;28;20208;-68
2023/04/15 05:44:06;;;;;;;3.37;1.80;;;6.20;99.90;;;;;;5013800;28;20313;-68
2023/04/15 05:46:34;;;;;;;3.07;1.80;;;6.30;99.90;;;;;;4994103;28;20254;-68
2023/04/15 05:49:02;;;;;;;3.20;1.70;;;6.40;99.90;;;;;;5013878;28;20272;-68
2023/04/15 05:51:30;;;;;;;4.03;1.70;;;6.40;99.90;;;;;;4997603;28;20186;-68
2023/04/15 05:54:01;;;;;;;3.97;2.10;;;6.50;99.90;;;;;;4997580;28;20229;-68
2023/04/15 05:56:26;;;;;;;2.30;1.60;;;6.60;99.90;;;;;;4997429;28;20232;-63
2023/04/15 05:58:52;;;;;;;2.97;1.70;;;6.70;99.90;;;;;;5009915;28;20190;-68
2023/04/15 06:01:21;;;;;;;3.80;2.10;;;6.70;99.90;;;;;;4997787;28;20260;-69
2023/04/15 06:03:47;;;;;;;2.83;1.63;;;6.80;99.90;;;;;;4997763;28;20179;-68
2023/04/15 06:06:14;;;;;;;3.40;2.00;;;6.90;99.90;;;;;;4997669;28;20266;-68
2023/04/15 06:08:45;;;;;;;3.40;1.80;;;6.90;99.90;;;;;;4996982;28;20191;-68
2023/04/15 06:11:10;;;;;;;2.37;1.83;;;7.00;99.90;;;;;;4998301;28;20242;-69
2023/04/15 06:13:36;;;;;;;3.03;1.63;;;7.00;99.90;;;;;;4996993;28;20230;-67
2023/04/15 06:16:02;;;;;;;2.57;1.77;;;7.10;99.90;;;;;;4997435;28;20205;-66
2023/04/15 06:18:28;;;;;;;4.30;2.60;;;7.10;99.90;;;;;;4997083;28;20285;-68
2023/04/15 06:20:54;;;;;;;3.37;2.10;;;7.20;99.90;;;;;;4997009;28;20269;-70
2023/04/15 06:23:21;;;;;;;3.00;2.10;;;7.30;99.90;;;;;;4997116;28;20257;-67
2023/04/15 06:25:49;;;;;;;4.90;2.40;;;7.40;99.90;;;;;;4996778;28;20366;-69
2023/04/15 06:28:15;;;;;;;3.77;2.53;;;7.50;99.90;;;;;;5004369;28;20185;-69
2023/04/15 06:30:43;;;;;;;5.90;2.90;;;7.60;99.90;;;;;;5015333;28;20175;-65
2023/04/15 06:33:09;;;;;;;4.47;2.70;;;7.80;99.90;;;;;;4999078;28;20218;-68
2023/04/15 06:35:35;;;;;;;6.37;3.30;;;7.80;99.90;;;;;;5002442;28;20186;-67
2023/04/15 06:38:01;;;;;;;5.33;2.60;;;7.90;99.90;;;;;;4995973;28;20317;-69
2023/04/15 06:40:26;;;;;;;5.00;3.00;;;8.00;99.90;;;;;;4997664;28;20261;-69
2023/04/15 06:42:52;;;;;;;4.37;2.80;;;8.10;99.90;;;;;;4996919;28;20194;-69
2023/04/15 06:45:20;;;;;;;6.13;3.77;;;8.10;99.90;;;;;;5013568;28;20199;-69
2023/04/15 06:47:46;;;;;;;5.40;4.07;;;8.30;99.90;;;;;;4991353;28;20202;-69
2023/04/15 06:50:16;;;;;;;5.40;3.40;;;8.30;99.90;;;;;;4997331;28;20182;-69
2023/04/15 06:52:45;;;;;;;5.47;2.93;;;8.40;99.90;;;;;;4997979;28;20507;-69
2023/04/15 06:55:11;;;;;;;3.90;2.70;;;8.50;99.90;;;;;;4997441;28;20175;-67
2023/04/15 06:57:44;;;;;;;5.47;2.77;;;8.50;99.90;;;;;;4997786;28;20395;-69
2023/04/15 07:00:10;;;;;;;4.57;2.60;;;8.50;99.90;;;;;;5014106;28;20175;-69
2023/04/15 07:02:36;;;;;;;4.93;2.50;;;8.60;99.90;;;;;;4997808;28;20258;-69
2023/04/15 07:05:03;;;;;;;4.80;2.67;;;8.70;99.90;;;;;;5013096;28;20294;-68
2023/04/15 07:07:31;;;;;;;4.53;2.83;;;8.80;99.90;;;;;;5000261;28;20187;-70
2023/04/15 07:09:57;;;;;;;4.97;2.83;;;8.90;99.90;;;;;;4999454;28;20179;-73
2023/04/15 07:12:23;;;;;;;4.13;3.10;;;9.00;99.90;;;;;;4999103;28;20252;-71
2023/04/15 07:14:53;;;;;;;6.37;4.20;;;9.10;99.90;;;;;;5016120;28;20193;-71
2023/04/15 07:17:19;;;;;;;6.43;4.30;;;9.20;99.90;;;;;;5000575;28;20195;-69
2023/04/15 07:19:45;;;;;;;6.50;3.50;;;9.30;99.90;;;;;;5014264;28;20198;-67
2023/04/15 07:22:13;;;;;;;5.13;3.67;;;9.40;99.90;;;;;;5000843;28;20233;-68
2023/04/15 07:24:41;;;;;;;4.53;3.20;;;9.60;99.90;;;;;;5003492;28;20309;-69
2023/04/15 07:27:07;;;;;;;5.82;3.17;;;9.70;99.90;;;;;;5000595;28;20181;-68
2023/04/15 07:29:33;;;;;;;3.85;3.30;;;9.90;99.90;;;;;;4997484;28;20273;-68
2023/04/15 07:31:58;;;;;;;3.60;3.10;;;10.00;99.90;;;;;;4998809;28;20218;-68
2023/04/15 07:34:26;;;;;;;5.10;3.47;;;10.10;99.90;;;;;;5001187;28;20229;-69
2023/04/15 07:36:52;;;;;;;4.28;2.92;;;10.30;99.90;;;;;;5000402;28;20221;-70
2023/04/15 07:39:17;;;;;;;4.07;3.40;;;10.40;99.90;;;;;;5016189;28;20209;-69
2023/04/15 07:41:43;;;;;;;6.80;4.70;;;10.60;99.90;;;;;;4999179;28;20218;-69
2023/04/15 07:44:09;;;;;;;4.90;3.60;;;10.70;99.90;;;;;;5001102;28;20182;-69
2023/04/15 07:46:34;;;;;;;5.10;3.83;;;10.80;99.90;;;;;;5000797;28;20194;-69
2023/04/15 07:49:00;;;;;;;4.88;3.70;;;10.90;99.90;;;;;;5001124;28;20166;-69
2023/04/15 07:51:26;;;;;;;4.82;3.35;;;11.00;99.90;;;;;;5001073;28;20171;-69
2023/04/15 07:53:54;;;;;;;4.88;3.58;;;11.10;99.90;;;;;;5000714;28;20192;-66
2023/04/15 07:56:19;;;;;;;6.20;3.60;;;11.20;99.90;;;;;;5000667;28;20178;-70
2023/04/15 07:58:45;;;;;;;4.55;3.40;;;11.30;99.90;;;;;;5006767;28;20178;-69
2023/04/15 08:01:13;;;;;;;6.13;3.45;;;11.40;99.90;;;;;;5016537;28;20215;-69
2023/04/15 08:03:41;;;;;;;4.25;3.63;;;11.60;99.90;;;;;;5016995;28;20210;-70
2023/04/15 08:06:07;;;;;;;4.97;3.65;;;11.60;99.90;;;;;;5017139;28;20171;-66
2023/04/15 08:08:33;;;;;;;3.53;3.15;;;11.70;99.90;;;;;;5016902;28;20242;-67
2023/04/15 08:10:58;;;;;;;4.53;3.35;;;11.80;99.90;;;;;;5001888;28;20191;-70
2023/04/15 08:13:27;;;;;;;4.30;3.38;;;11.90;99.90;;;;;;5016297;28;20179;-69
2023/04/15 08:16:30;;;;;;;6.07;3.80;;;12.00;99.90;;;;;;4997629;28;20238;-68
2023/04/15 08:18:56;;;;;;;4.80;3.85;;;12.00;99.90;;;;;;4995953;28;20262;-69
2023/04/15 08:21:26;;;;;;;5.13;3.83;;;12.10;99.90;;;;;;4997109;28;20259;-69
2023/04/15 08:23:55;;;;;;;4.65;3.70;;;12.10;99.90;;;;;;4996462;28;20175;-70
2023/04/15 08:26:21;;;;;;;4.13;3.65;;;12.20;99.90;;;;;;4996843;28;20171;-70
2023/04/15 08:28:50;;;;;;;4.65;3.55;;;12.30;99.90;;;;;;5005940;28;20190;-70
2023/04/15 08:31:19;;;;;;;3.80;3.35;;;12.40;99.90;;;;;;4999694;28;20170;-70
2023/04/15 08:33:45;;;;;;;6.70;3.80;;;12.50;99.90;;;;;;5000013;28;20174;-69
2023/04/15 08:36:13;;;;;;;6.72;3.90;;;12.50;99.90;;;;;;5016307;28;20236;-69
2023/04/15 08:38:39;;;;;;;8.55;4.45;;;12.70;99.90;;;;;;5016027;28;20214;-68
2023/04/15 08:41:26;;;;;;;6.13;4.25;;;12.80;99.90;;;;;;4999910;28;20251;-71
2023/04/15 08:44:00;;;;;;;5.70;4.10;;;12.90;99.90;;;;;;4999723;28;20171;-70
2023/04/15 08:46:25;;;;;;;4.68;3.55;;;13.00;99.90;;;;;;5016169;28;20225;-70
2023/04/15 08:48:58;;;;;;;5.00;3.97;;;13.00;99.90;;;;;;5016141;28;20179;-70
2023/04/15 08:51:27;;;;;;;4.68;4.00;;;13.10;99.90;;;;;;5014774;28;20175;-69
2023/04/15 08:53:57;;;;;;;5.25;3.70;;;13.20;99.90;;;;;;4996283;28;20210;-69
2023/04/15 08:56:27;;;;;;;6.32;4.53;;;13.30;99.90;;;;;;5003389;28;20174;-69
2023/04/15 08:58:56;;;;;;;7.47;4.00;;;13.40;99.90;;;;;;5015876;28;20454;-68
2023/04/15 09:01:22;;;;;;;5.40;3.60;;;13.40;99.90;;;;;;5015535;28;20194;-70
2023/04/15 09:03:50;;;;;;;4.55;4.13;;;13.50;99.90;;;;;;5003648;28;20185;-69
2023/04/15 09:06:17;;;;;;;5.55;3.72;;;13.60;99.90;;;;;;5015433;28;20202;-69
2023/04/15 09:08:45;;;;;;;5.93;4.10;;;13.60;99.90;;;;;;5015418;28;20170;-69
2023/04/15 09:11:12;;;;;;;3.95;3.45;;;13.70;99.90;;;;;;5015644;28;20276;-69
2023/04/15 09:13:39;;;;;;;4.75;3.58;;;13.80;99.90;;;;;;5010225;28;20298;-65
2023/04/15 09:16:05;;;;;;;4.18;3.08;;;13.90;99.90;;;;;;4999260;28;20183;-65
2023/04/15 09:18:33;;;;;;;3.88;2.83;;;14.00;99.90;;;;;;4999182;28;20198;-65
2023/04/15 09:21:10;;;;;;;2.83;2.25;;;14.10;99.90;;;;;;4999390;28;20228;-65
2023/04/15 09:23:39;;;;;;;2.72;2.00;;;14.20;99.90;;;;;;4979579;28;20179;-66
2023/04/15 09:26:07;;;;;;;3.13;1.63;;;14.30;99.90;;;;;;5003717;28;20175;-65
2023/04/15 09:28:40;;;;;;;1.90;1.50;;;14.40;99.90;;;;;;4998739;28;20210;-66
2023/04/15 09:31:05;;;;;;;2.15;1.30;;;14.50;99.90;;;;;;4998613;28;20179;-65
2023/04/15 09:33:31;;;;;;;1.95;1.30;;;14.70;99.90;;;;;;4998665;28;20190;-65
2023/04/15 09:36:05;;;;;;;1.63;1.10;;;14.70;99.90;;;;;;5015350;28;20229;-65
2023/04/15 09:38:34;;;;;;;1.60;1.20;;;14.80;99.90;;;;;;5015196;28;20389;-65
2023/04/15 09:41:18;;;;;;;1.50;1.30;;;14.80;99.90;;;;;;5015357;28;20166;-65
2023/04/15 09:43:44;;;;;;;1.65;1.27;;;14.90;99.90;;;;;;5015156;28;20271;-65
2023/04/15 09:46:12;;;;;;;1.40;1.20;;;14.90;99.90;;;;;;5015101;28;20213;-65
2023/04/15 09:48:37;;;;;;;2.47;1.40;;;14.90;99.90;;;;;;4999168;28;20249;-65
2023/04/15 09:51:03;;;;;;;2.65;1.40;;;14.90;99.90;;;;;;4995173;28;20262;-65
2023/04/15 09:53:31;;;;;;;1.42;1.20;;;14.90;99.90;;;;;;4995405;28;20202;-66
2023/04/15 09:56:01;;;;;;;1.20;1.08;;;14.90;99.90;;;;;;4995069;28;20175;-65
2023/04/15 09:58:28;;;;;;;1.30;1.20;;;15.00;99.90;;;;;;4995109;28;20266;-66
2023/04/15 10:00:59;;;;;;;2.97;1.70;;;15.00;99.90;;;;;;5008742;28;20181;-66
2023/04/15 10:03:27;;;;;;;1.77;1.40;;;15.00;99.90;;;;;;5014983;28;20198;-65
2023/04/15 10:05:55;;;;;;;2.10;1.50;;;15.10;99.90;;;;;;5002964;28;20214;-66
2023/04/15 10:08:24;;;;;;;1.42;1.33;;;15.30;99.90;;;;;;4995395;28;20183;-67
2023/04/15 10:10:50;;;;;;;1.40;1.10;;;15.60;99.90;;;;;;4995105;28;20234;-66
2023/04/15 10:13:32;;;;;;;1.60;1.30;;;15.90;99.90;;;;;;4999999;28;20198;-65
2023/04/15 10:16:02;;;;;;;2.35;1.20;;;16.30;99.90;;;;;;5014666;28;20198;-65
2023/04/15 10:18:33;;;;;;;1.85;1.30;;;16.60;99.90;;;;;;5001701;28;20206;-66
2023/04/15 10:21:02;;;;;;;1.58;1.20;;;16.80;99.90;;;;;;4995280;28;20179;-66
2023/04/15 10:23:28;;;;;;;1.75;1.20;;;17.00;99.90;;;;;;4995234;28;20167;-64
2023/04/15 10:25:55;;;;;;;2.80;1.15;;;17.20;99.90;;;;;;4998299;28;20192;-66
2023/04/15 10:28:23;;;;;;;1.30;1.20;;;17.30;99.90;;;;;;5010593;28;20266;-65
2023/04/15 10:30:52;;;;;;;1.30;1.20;;;17.40;99.90;;;;;;4998125;28;20248;-66
2023/04/15 10:33:21;;;;;;;1.15;1.00;;;17.50;99.90;;;;;;5014661;28;20166;-65
2023/04/15 10:35:48;;;;;;;1.20;1.10;;;17.60;99.90;;;;;;4998220;28;20202;-65
2023/04/15 10:38:37;;;;;;;1.65;1.40;;;17.70;99.90;;;;;;4997583;28;20179;-65
2023/04/15 10:41:22;;;;;;;2.53;1.90;;;17.80;99.90;;;;;;5014002;28;20182;-65
2023/04/15 10:44:04;;;;;;;2.17;1.77;;;17.80;99.90;;;;;;5017794;28;20221;-65
2023/04/15 10:46:42;;;;;;;1.88;1.45;;;17.80;99.90;;;;;;4998164;28;20197;-65
2023/04/15 10:49:12;;;;;;;2.85;1.50;;;17.70;99.90;;;;;;4998164;28;20183;-65
2023/04/15 10:51:40;;;;;;;1.80;1.30;;;17.60;99.90;;;;;;4997872;28;20187;-65
2023/04/15 10:54:24;;;;;;;2.08;1.40;;;17.40;99.90;;;;;;4985475;28;20167;-65
2023/04/15 10:57:05;;;;;;;1.33;1.23;;;17.20;99.90;;;;;;5009829;28;20229;-65
2023/04/15 11:00:00;;;;;;;1.65;1.20;;;17.10;99.90;;;;;;5001129;28;20170;-65
2023/04/15 11:02:39;;;;;;;2.15;1.60;;;17.00;99.90;;;;;;4994166;28;20371;-65
2023/04/15 11:05:05;;;;;;;3.22;1.80;;;17.00;99.90;;;;;;5017735;28;20197;-66
2023/04/15 11:07:50;;;;;;;2.30;1.70;;;17.10;99.90;;;;;;5003579;28;20202;-66
2023/04/15 11:10:25;;;;;;;1.70;1.60;;;17.10;99.90;;;;;;4998031;28;20274;-66
2023/04/15 11:12:55;;;;;;;2.15;1.95;;;17.10;99.90;;;;;;4997938;28;20205;-66
2023/04/15 11:15:48;;;;;;;2.20;2.00;;;17.10;99.90;;;;;;5005345;28;20210;-66
2023/04/15 11:18:15;;;;;;;2.63;2.05;;;17.10;99.90;;;;;;4998287;28;20256;-65
2023/04/15 11:20:53;;;;;;;3.00;2.33;;;17.10;99.90;;;;;;5000804;28;20214;-65
2023/04/15 11:23:26;;;;;;;3.60;2.58;;;17.10;99.90;;;;;;5007251;28;20209;-65
2023/04/15 11:25:54;;;;;;;2.97;2.28;;;17.00;99.90;;;;;;5019643;28;20198;-65
2023/04/15 11:28:20;;;;;;;2.80;2.50;;;16.80;99.90;;;;;;5017220;28;20174;-65
2023/04/15 11:30:45;;;;;;;2.85;2.10;;;16.70;99.90;;;;;;5017396;28;20182;-65
2023/04/15 11:33:12;;;;;;;2.40;2.15;;;16.70;99.90;;;;;;5017237;28;20178;-65
2023/04/15 11:35:40;;;;;;;2.58;1.95;;;16.70;99.90;;;;;;5016424;28;20189;-65
2023/04/15 11:38:12;;;;;;;2.35;2.13;;;16.60;99.90;;;;;;5000674;28;20403;-65
2023/04/15 11:40:43;;;;;;;2.05;1.70;;;16.60;99.90;;;;;;5005822;28;20225;-65
2023/04/15 11:43:13;;;;;;;2.00;1.80;;;16.60;99.90;;;;;;5000643;28;20376;-65
2023/04/15 11:45:52;;;;;;;2.20;2.00;;;16.50;99.90;;;;;;5000517;28;20178;-65
2023/04/15 11:48:19;;;;;;;2.20;1.77;;;16.30;99.90;;;;;;5016214;28;20197;-65
2023/04/15 11:50:51;;;;;;;2.28;2.08;;;16.20;99.90;;;;;;5000450;28;20170;-65
2023/04/15 11:53:19;;;;;;;2.00;1.80;;;16.10;99.90;;;;;;5015382;28;20195;-65
2023/04/15 11:55:45;;;;;;;2.05;1.80;;;15.90;99.90;;;;;;4997053;28;20325;-65
2023/04/15 11:58:22;;;;;;;2.17;1.98;;;15.90;99.90;;;;;;4997215;28;20179;-65
2023/04/15 12:00:58;;;;;;;1.60;1.50;;;15.90;99.90;;;;;;4997302;28;20167;-66
2023/04/15 12:03:26;;;;;;;1.67;1.58;;;15.90;99.90;;;;;;5008714;28;20178;-65
2023/04/15 12:06:12;;;;;;;2.10;1.70;;;15.90;99.90;;;;;;4982154;28;20186;-65
2023/04/15 12:08:54;;;;;;;1.88;1.67;;;16.00;99.90;;;;;;4996928;28;20206;-66
2023/04/15 12:11:32;;;;;;;1.48;1.38;;;16.10;99.90;;;;;;4996746;28;20183;-65
2023/04/15 12:14:16;;;;;;;1.63;1.40;;;16.10;99.90;;;;;;4996847;28;20167;-65
2023/04/15 12:16:45;;;;;;;1.58;1.40;;;16.20;99.90;;;;;;4996474;28;20210;-65
2023/04/15 12:19:15;;;;;;;1.70;1.60;;;16.30;99.90;;;;;;5000243;28;20201;-65
2023/04/15 12:21:44;;;;;;;2.15;1.88;;;16.40;99.90;;;;;;5015873;28;20194;-66
2023/04/15 12:24:13;;;;;;;1.70;1.60;;;16.40;99.90;;;;;;5016305;28;20171;-65
2023/04/15 12:26:52;;;;;;;2.97;1.25;;;16.40;99.90;;;;;;5015913;28;20174;-66
2023/04/15 12:29:18;;;;;;;1.60;1.50;;;16.30;99.90;;;;;;4999905;28;20166;-65
2023/04/15 12:32:09;;;;;;;1.38;1.27;;;16.20;99.90;;;;;;4999772;28;20328;-65
2023/04/15 12:34:37;;;;;;;1.90;1.63;;;16.10;99.90;;;;;;4999318;28;20207;-66
2023/04/15 12:37:08;;;;;;;1.80;1.60;;;15.90;99.90;;;;;;4996011;28;20218;-65
2023/04/15 12:39:41;;;;;;;2.20;1.83;;;15.70;99.90;;;;;;4997119;28;20171;-65
2023/04/15 12:42:07;;;;;;;2.15;1.85;;;15.50;99.90;;;;;;5016208;28;20206;-65
2023/04/15 12:44:35;;;;;;;2.00;1.80;;;15.40;99.90;;;;;;4995947;28;20270;-66
2023/04/15 12:47:06;;;;;;;1.98;1.70;;;15.30;99.90;;;;;;4995624;28;20329;-66
2023/04/15 12:49:34;;;;;;;2.80;2.10;;;15.20;99.90;;;;;;4997451;28;20250;-65
2023/04/15 12:52:01;;;;;;;2.00;1.88;;;15.00;99.90;;;;;;4980548;28;20173;-66
2023/04/15 12:54:28;;;;;;;2.20;1.85;;;14.90;99.90;;;;;;4996215;28;20289;-66
2023/04/15 12:56:56;;;;;;;2.30;2.10;;;14.80;99.90;;;;;;5013827;28;20273;-66
2023/04/15 12:59:25;;;;;;;2.55;2.35;;;14.70;99.90;;;;;;4996057;28;20262;-65